Harbor Island, New York
Current Conditions -  °F | °C
As of 1:51 PM on Thursday 30 Oct 2014 (Local Time) from KJFK Reporting Station
Scattered Clouds Scattered Clouds  
Wind Chill: 58°   Ceiling: Unl
Heat Index: 58°   Visibility: 10mi
Dew Point: 35°   Wind: 14mph
Humidity: 42%   Direction: 330°NNW
Pressure: 29.98"   Gusts: NA
Location:  40.6062°N, 73.6508°W
Report Text: KJFK 301751Z 33012KT 10SM SCT055 SCT075 14/02 A2998 RMK AO2 SLP150 T01440017 10161 20094 58009
Loading
Personal Weather Stations






























Interactive Weather Map
Tropical Storm Tracking
New forecast layout! Learn more

10-Day Weather Forecast

Advertisements
Track Severe Weather on mobile